Time;durP1;ratioP1;P1;durP2;ratioP2;P2;SDS_P1;SDS_P2;PMS_P1;PMS_P2;Temp;Humidity;BMP_temperature;BMP_pressure;BME280_temperature;BME280_humidity;BME280_pressure;Samples;Min_cycle;Max_cycle;Signal;HPM_P1;HPM_P2
2021/10/28 00:14:20;;;;;;;5.25;4.43;;;;;;;;;;5022565;28;20198;-78
2021/10/28 00:16:48;;;;;;;5.57;4.45;;;;;;;;;;5019207;28;20205;-78
2021/10/28 00:19:15;;;;;;;5.03;4.53;;;;;;;;;;5018829;28;20274;-78
2021/10/28 00:21:41;;;;;;;6.85;4.60;;;;;;;;;;5022739;28;20205;-78
2021/10/28 00:24:10;;;;;;;6.38;4.60;;;;;;;;;;5026809;28;20202;-78
2021/10/28 00:26:37;;;;;;;6.70;4.47;;;;;;;;;;5017645;28;20179;-78
2021/10/28 00:29:05;;;;;;;5.47;4.25;;;;;;;;;;5017611;28;20171;-78
2021/10/28 00:31:32;;;;;;;6.13;4.55;;;;;;;;;;5019824;28;20175;-78
2021/10/28 00:33:58;;;;;;;7.57;4.25;;;;;;;;;;5020018;28;20192;-78
2021/10/28 00:36:25;;;;;;;4.53;4.05;;;;;;;;;;5026044;28;20289;-78
2021/10/28 00:38:51;;;;;;;6.00;4.75;;;;;;;;;;5018110;28;20198;-78
2021/10/28 00:41:24;;;;;;;5.47;4.40;;;;;;;;;;5016574;28;20244;-78
2021/10/28 00:43:55;;;;;;;6.40;4.43;;;;;;;;;;5019850;28;20202;-78
2021/10/28 00:46:22;;;;;;;4.63;4.00;;;;;;;;;;5020115;28;20210;-78
2021/10/28 00:48:48;;;;;;;8.77;4.03;;;;;;;;;;5018898;28;20237;-78
2021/10/28 00:51:18;;;;;;;4.95;3.80;;;;;;;;;;5026517;28;20198;-78
2021/10/28 00:53:44;;;;;;;5.25;4.07;;;;;;;;;;5032797;28;20537;-78
2021/10/28 00:56:10;;;;;;;3.88;3.53;;;;;;;;;;5020791;28;20178;-78
2021/10/28 00:58:37;;;;;;;5.85;4.05;;;;;;;;;;5018015;28;20473;-78
2021/10/28 01:01:04;;;;;;;5.95;4.00;;;;;;;;;;5020923;28;20175;-78
2021/10/28 01:03:30;;;;;;;3.72;3.42;;;;;;;;;;5016504;28;20206;-78
2021/10/28 01:05:56;;;;;;;4.25;3.20;;;;;;;;;;5028562;28;20170;-78
2021/10/28 01:08:23;;;;;;;3.58;3.28;;;;;;;;;;5016831;28;20217;-78
2021/10/28 01:10:50;;;;;;;5.50;4.15;;;;;;;;;;5017713;28;20585;-78
2021/10/28 01:13:17;;;;;;;5.90;3.90;;;;;;;;;;5015804;28;20187;-78
2021/10/28 01:15:43;;;;;;;4.05;3.50;;;;;;;;;;5022082;28;20209;-78
2021/10/28 01:18:13;;;;;;;4.22;3.40;;;;;;;;;;5021268;28;20183;-78
2021/10/28 01:20:40;;;;;;;4.50;3.55;;;;;;;;;;5016743;28;20182;-78
2021/10/28 01:23:07;;;;;;;3.92;3.60;;;;;;;;;;5020666;28;20195;-78
2021/10/28 01:25:34;;;;;;;5.18;4.20;;;;;;;;;;5022725;28;20194;-78
2021/10/28 01:28:00;;;;;;;3.60;2.92;;;;;;;;;;5024047;28;20181;-78
2021/10/28 01:30:26;;;;;;;3.88;3.35;;;;;;;;;;5029863;28;20213;-78
2021/10/28 01:32:52;;;;;;;3.30;3.00;;;;;;;;;;5021669;28;20229;-79
2021/10/28 01:35:19;;;;;;;4.00;3.30;;;;;;;;;;5025868;28;20183;-79
2021/10/28 01:37:45;;;;;;;4.57;3.40;;;;;;;;;;5024001;28;20563;-79
2021/10/28 01:40:11;;;;;;;5.45;3.33;;;;;;;;;;5025902;28;20181;-79
2021/10/28 01:42:39;;;;;;;2.85;2.65;;;;;;;;;;5024753;28;20258;-79
2021/10/28 01:45:05;;;;;;;4.22;3.25;;;;;;;;;;5025177;28;20224;-79
2021/10/28 01:47:32;;;;;;;3.80;3.38;;;;;;;;;;5016239;28;20182;-79
2021/10/28 01:49:58;;;;;;;3.20;2.90;;;;;;;;;;5019427;28;20214;-79
2021/10/28 01:52:24;;;;;;;3.67;3.38;;;;;;;;;;5022974;28;20209;-79
2021/10/28 01:54:50;;;;;;;5.65;3.33;;;;;;;;;;5022826;28;20189;-79
2021/10/28 01:57:17;;;;;;;4.15;3.33;;;;;;;;;;5020112;28;20188;-79
2021/10/28 01:59:43;;;;;;;3.42;2.83;;;;;;;;;;5036281;28;20186;-78
2021/10/28 02:02:09;;;;;;;3.17;2.70;;;;;;;;;;5020189;28;20206;-79
2021/10/28 02:04:35;;;;;;;3.28;2.65;;;;;;;;;;5020969;28;20218;-78
2021/10/28 02:07:01;;;;;;;3.07;2.77;;;;;;;;;;5023877;28;20185;-79
2021/10/28 02:09:27;;;;;;;4.47;3.00;;;;;;;;;;5019635;28;20442;-79
2021/10/28 02:11:53;;;;;;;3.15;2.80;;;;;;;;;;5015519;28;20432;-79
2021/10/28 02:14:21;;;;;;;3.67;2.80;;;;;;;;;;5023625;28;20219;-78
2021/10/28 02:16:47;;;;;;;2.90;2.42;;;;;;;;;;5020951;28;20193;-79
2021/10/28 02:19:13;;;;;;;3.58;3.00;;;;;;;;;;5022991;28;20202;-79
2021/10/28 02:21:39;;;;;;;2.95;2.63;;;;;;;;;;5020346;28;20222;-79
2021/10/28 02:24:05;;;;;;;3.35;2.92;;;;;;;;;;5020034;28;20493;-79
2021/10/28 02:26:32;;;;;;;4.03;3.03;;;;;;;;;;5023206;28;20182;-79
2021/10/28 02:28:58;;;;;;;3.42;2.90;;;;;;;;;;5019198;28;20170;-79
2021/10/28 02:31:24;;;;;;;2.60;2.40;;;;;;;;;;5020957;28;20270;-79
2021/10/28 02:33:50;;;;;;;3.67;2.95;;;;;;;;;;5013916;28;20206;-79
2021/10/28 02:36:17;;;;;;;3.13;2.88;;;;;;;;;;5023064;28;20270;-79
2021/10/28 02:38:43;;;;;;;4.32;3.40;;;;;;;;;;5019868;28;20179;-79
2021/10/28 02:41:09;;;;;;;2.97;2.40;;;;;;;;;;5023337;28;20193;-79
2021/10/28 02:43:35;;;;;;;3.40;2.77;;;;;;;;;;5019327;28;20211;-79
2021/10/28 02:46:02;;;;;;;2.95;2.63;;;;;;;;;;5035293;28;20465;-79
2021/10/28 02:48:28;;;;;;;2.85;2.63;;;;;;;;;;5019151;28;20179;-79
2021/10/28 02:50:54;;;;;;;9.90;3.60;;;;;;;;;;5020437;28;20233;-79
2021/10/28 02:53:20;;;;;;;2.50;2.30;;;;;;;;;;5018778;28;20186;-79
2021/10/28 02:55:47;;;;;;;3.38;2.50;;;;;;;;;;5018517;28;20437;-79
2021/10/28 02:58:13;;;;;;;3.50;3.20;;;;;;;;;;5011476;28;20699;-79
2021/10/28 03:00:39;;;;;;;5.20;2.88;;;;;;;;;;5023497;28;20186;-80
2021/10/28 03:03:05;;;;;;;5.32;2.90;;;;;;;;;;5032231;28;20205;-79
2021/10/28 03:05:32;;;;;;;3.38;2.90;;;;;;;;;;5015145;28;20232;-79
2021/10/28 03:07:58;;;;;;;6.93;3.22;;;;;;;;;;5016988;28;20183;-79
2021/10/28 03:10:24;;;;;;;4.00;2.97;;;;;;;;;;5021867;28;20182;-79
2021/10/28 03:12:52;;;;;;;3.20;2.90;;;;;;;;;;5022009;28;20233;-79
2021/10/28 03:15:19;;;;;;;3.35;3.05;;;;;;;;;;5019132;28;20158;-79
2021/10/28 03:26:00;;;;;;;3.03;2.65;;;;;;;;;;4996348;28;20516;-79
2021/10/28 03:28:26;;;;;;;4.28;2.58;;;;;;;;;;5000877;28;20179;-79
2021/10/28 03:30:52;;;;;;;2.55;2.35;;;;;;;;;;5001396;28;20179;-79
2021/10/28 03:33:21;;;;;;;4.18;3.30;;;;;;;;;;5001340;28;20175;-79
2021/10/28 03:35:47;;;;;;;8.43;3.05;;;;;;;;;;5001333;28;20214;-79
2021/10/28 03:38:50;;;;;;;3.55;2.65;;;;;;;;;;4996876;28;20247;-79
2021/10/28 03:44:05;;;;;;;3.17;2.60;;;;;;;;;;4996027;28;20238;-79
2021/10/28 04:00:01;;;;;;;3.40;2.80;;;;;;;;;;5018188;28;20182;-79
2021/10/28 04:08:10;;;;;;;4.68;2.60;;;;;;;;;;5014235;28;20981;-79
2021/10/28 04:29:32;;;;;;;4.10;3.72;;;;;;;;;;5017496;28;20213;-79
2021/10/28 04:31:58;;;;;;;4.32;3.75;;;;;;;;;;5017339;28;20202;-79
2021/10/28 04:34:25;;;;;;;4.65;3.40;;;;;;;;;;5022766;28;20198;-79
2021/10/28 04:36:51;;;;;;;3.95;3.60;;;;;;;;;;5021404;28;20205;-79
2021/10/28 04:39:17;;;;;;;8.80;3.90;;;;;;;;;;5018559;28;20179;-79
2021/10/28 04:41:44;;;;;;;5.25;3.45;;;;;;;;;;5018049;28;20175;-79
2021/10/28 04:44:12;;;;;;;5.15;3.55;;;;;;;;;;5016534;28;20210;-79
2021/10/28 04:46:38;;;;;;;3.40;3.10;;;;;;;;;;5024246;28;20229;-79
2021/10/28 04:49:05;;;;;;;5.40;3.47;;;;;;;;;;5021614;28;20336;-79
2021/10/28 04:51:31;;;;;;;5.03;3.75;;;;;;;;;;5022406;28;20182;-78
2021/10/28 04:53:57;;;;;;;3.85;2.97;;;;;;;;;;5016876;28;20190;-79
2021/10/28 04:56:23;;;;;;;5.07;4.15;;;;;;;;;;5017629;28;20185;-79
2021/10/28 04:58:49;;;;;;;4.50;3.22;;;;;;;;;;5021683;28;20281;-79
2021/10/28 05:01:16;;;;;;;5.30;3.05;;;;;;;;;;5021405;28;20209;-79
2021/10/28 05:03:42;;;;;;;3.80;3.40;;;;;;;;;;5016736;28;20606;-79
2021/10/28 05:06:08;;;;;;;5.95;4.00;;;;;;;;;;5026945;28;20171;-79
2021/10/28 05:08:34;;;;;;;6.70;3.50;;;;;;;;;;5028264;28;20173;-79
2021/10/28 05:11:00;;;;;;;6.32;4.65;;;;;;;;;;5012744;28;20229;-78
2021/10/28 05:13:26;;;;;;;4.75;3.35;;;;;;;;;;5019302;28;20206;-79
2021/10/28 05:15:54;;;;;;;3.70;3.40;;;;;;;;;;5019249;28;20178;-79
2021/10/28 05:18:23;;;;;;;4.53;3.85;;;;;;;;;;5016901;28;20489;-79
2021/10/28 05:20:50;;;;;;;4.40;3.95;;;;;;;;;;5021735;28;20174;-79
2021/10/28 05:23:15;;;;;;;5.03;4.22;;;;;;;;;;5016069;28;20202;-79
2021/10/28 05:25:42;;;;;;;5.95;4.35;;;;;;;;;;5021727;28;20189;-79
2021/10/28 05:28:08;;;;;;;4.70;4.30;;;;;;;;;;5021453;28;20209;-79
2021/10/28 05:30:34;;;;;;;6.80;4.85;;;;;;;;;;5016390;28;20189;-79
2021/10/28 05:33:00;;;;;;;5.53;4.43;;;;;;;;;;5021544;28;20293;-79
2021/10/28 05:35:27;;;;;;;5.35;4.15;;;;;;;;;;5022111;28;20337;-79
2021/10/28 05:37:53;;;;;;;5.00;4.35;;;;;;;;;;5017534;28;20187;-79
2021/10/28 05:40:19;;;;;;;4.35;3.95;;;;;;;;;;5020735;28;20183;-78
2021/10/28 05:42:49;;;;;;;4.85;4.35;;;;;;;;;;5020974;28;20213;-79
2021/10/28 05:45:16;;;;;;;11.27;5.15;;;;;;;;;;5016676;28;20220;-79
2021/10/28 05:47:42;;;;;;;4.63;4.05;;;;;;;;;;5017898;28;20205;-79
2021/10/28 05:50:14;;;;;;;6.45;4.00;;;;;;;;;;5020227;28;20232;-79
2021/10/28 05:52:40;;;;;;;7.30;4.93;;;;;;;;;;5017088;28;20190;-79
2021/10/28 05:55:07;;;;;;;5.25;4.75;;;;;;;;;;5020525;28;20174;-79
2021/10/28 05:57:33;;;;;;;5.88;4.40;;;;;;;;;;5025731;28;20187;-79
2021/10/28 05:59:59;;;;;;;5.03;4.53;;;;;;;;;;5021048;28;20213;-79
2021/10/28 06:02:25;;;;;;;5.65;4.68;;;;;;;;;;5016394;28;20178;-79
2021/10/28 06:04:52;;;;;;;5.72;5.00;;;;;;;;;;5016755;28;20215;-79
2021/10/28 06:07:18;;;;;;;9.20;5.03;;;;;;;;;;5023442;28;20179;-79
2021/10/28 06:09:44;;;;;;;8.88;4.70;;;;;;;;;;5019693;28;20178;-79
2021/10/28 06:12:10;;;;;;;6.85;5.10;;;;;;;;;;5029691;28;20178;-79
2021/10/28 06:14:37;;;;;;;10.40;6.47;;;;;;;;;;5020417;28;20182;-79
2021/10/28 06:17:10;;;;;;;6.95;5.30;;;;;;;;;;5019534;28;20190;-79
2021/10/28 06:19:36;;;;;;;9.50;5.40;;;;;;;;;;5024767;28;20225;-79
2021/10/28 06:22:03;;;;;;;7.97;5.68;;;;;;;;;;5023938;28;20181;-79
2021/10/28 06:24:29;;;;;;;6.93;5.40;;;;;;;;;;5022882;28;20217;-79
2021/10/28 06:26:55;;;;;;;7.28;5.90;;;;;;;;;;5024841;28;20162;-79
2021/10/28 06:29:21;;;;;;;7.75;5.75;;;;;;;;;;5023588;28;20237;-79
2021/10/28 06:31:48;;;;;;;6.10;5.50;;;;;;;;;;5024740;28;20194;-79
2021/10/28 06:34:19;;;;;;;8.88;5.97;;;;;;;;;;5025118;28;20209;-79
2021/10/28 06:36:46;;;;;;;10.95;5.78;;;;;;;;;;5023212;28;20190;-79
2021/10/28 06:39:12;;;;;;;7.88;5.20;;;;;;;;;;5024130;28;20190;-79
2021/10/28 06:41:39;;;;;;;5.88;5.28;;;;;;;;;;5019350;28;20186;-79
2021/10/28 06:44:05;;;;;;;6.18;5.57;;;;;;;;;;5016972;28;20366;-79
2021/10/28 06:46:31;;;;;;;8.82;5.72;;;;;;;;;;5021269;28;20187;-79
2021/10/28 06:48:57;;;;;;;8.68;5.95;;;;;;;;;;5022454;28;20190;-79
2021/10/28 06:51:24;;;;;;;6.68;6.00;;;;;;;;;;5019188;28;20171;-79
2021/10/28 07:04:29;;;;;;;6.72;6.13;;;;;;;;;;5012202;28;20278;-79
2021/10/28 07:06:55;;;;;;;6.83;6.13;;;;;;;;;;5021016;28;20210;-79
2021/10/28 07:09:30;;;;;;;6.70;5.27;;;;;;;;;;5017942;28;20832;-79
2021/10/28 07:12:46;;;;;;;8.82;6.38;;;;;;;;;;5019862;28;20409;-79
2021/10/28 07:14:47;;;;;;;7.22;5.93;;;;;;;;;;5017008;28;20183;-79
2021/10/28 07:27:36;;;;;;;7.63;6.17;;;;;;;;;;5018454;28;20234;-79
2021/10/28 07:33:04;;;;;;;8.70;7.35;;;;;;;;;;5014640;28;20193;-79
2021/10/28 08:18:46;;;;;;;10.50;7.60;;;;;;;;;;5041197;28;20185;-78
2021/10/28 08:29:45;;;;;;;8.45;6.90;;;;;;;;;;5040223;28;20257;-78
2021/10/28 08:32:04;;;;;;;10.50;7.70;;;;;;;;;;5038665;28;20185;-78
2021/10/28 08:34:33;;;;;;;12.85;7.32;;;;;;;;;;5040888;28;20307;-78
2021/10/28 08:37:11;;;;;;;8.98;7.00;;;;;;;;;;5036603;28;20182;-78
2021/10/28 08:39:38;;;;;;;9.95;7.88;;;;;;;;;;5021545;28;20441;-78
2021/10/28 08:42:09;;;;;;;10.38;7.80;;;;;;;;;;5028668;28;20202;-78
2021/10/28 08:44:39;;;;;;;12.02;6.97;;;;;;;;;;5012214;28;20301;-78
2021/10/28 08:47:06;;;;;;;9.25;6.90;;;;;;;;;;5016913;28;20194;-78
2021/10/28 08:49:36;;;;;;;9.02;5.90;;;;;;;;;;5019078;28;20210;-78
2021/10/28 09:24:35;;;;;;;8.15;6.65;;;;;;;;;;5016289;28;20230;-78
2021/10/28 09:30:05;;;;;;;9.60;6.13;;;;;;;;;;5012666;28;20171;-79
2021/10/28 09:32:38;;;;;;;4.97;4.47;;;;;;;;;;5012577;28;20187;-78
2021/10/28 09:46:17;;;;;;;5.55;4.07;;;;;;;;;;5024077;28;20234;-79
2021/10/28 09:49:51;;;;;;;6.60;4.25;;;;;;;;;;5021798;28;20181;-79
2021/10/28 09:51:46;;;;;;;6.43;4.35;;;;;;;;;;5020644;28;20186;-79
2021/10/28 09:59:32;;;;;;;5.05;3.35;;;;;;;;;;5019804;28;20259;-78
2021/10/28 10:02:10;;;;;;;6.22;4.65;;;;;;;;;;5023710;28;20194;-79
2021/10/28 10:04:37;;;;;;;5.43;4.00;;;;;;;;;;5021865;28;20230;-79
2021/10/28 10:07:05;;;;;;;6.90;3.78;;;;;;;;;;5024245;28;20174;-78
2021/10/28 10:09:34;;;;;;;5.00;3.55;;;;;;;;;;5028804;28;20210;-80
2021/10/28 10:12:00;;;;;;;4.65;3.22;;;;;;;;;;5020775;28;20171;-78
2021/10/28 10:14:27;;;;;;;5.68;3.80;;;;;;;;;;5019609;28;20194;-78
2021/10/28 10:16:53;;;;;;;5.30;4.15;;;;;;;;;;5019651;28;20193;-79
2021/10/28 10:19:28;;;;;;;4.13;3.72;;;;;;;;;;5024044;28;20182;-79
2021/10/28 10:21:55;;;;;;;5.43;3.55;;;;;;;;;;5021396;28;20263;-79
2021/10/28 11:04:57;;;;;;;5.38;4.30;;;;;;;;;;5023315;28;20209;-78
2021/10/28 12:25:17;;;;;;;5.22;4.05;;;;;;;;;;5014314;28;20203;-76
2021/10/28 13:52:41;;;;;;;3.92;3.58;;;;;;;;;;5024430;28;20186;-77
2021/10/28 13:59:58;;;;;;;6.75;2.80;;;;;;;;;;5019445;28;20431;-78
2021/10/28 14:17:04;;;;;;;5.20;2.70;;;;;;;;;;5026835;28;20461;-76
2021/10/28 14:30:22;;;;;;;2.73;2.37;;;;;;;;;;5020077;28;20508;-75
2021/10/28 15:28:58;;;;;;;3.63;3.33;;;;;;;;;;4996716;28;20235;-75
2021/10/28 15:39:02;;;;;;;3.27;2.70;;;;;;;;;;4998848;28;20199;-75
2021/10/28 15:59:03;;;;;;;4.28;2.70;;;;;;;;;;4998106;28;20248;-77
2021/10/28 16:01:14;;;;;;;2.78;2.40;;;;;;;;;;4992160;28;20206;-77
2021/10/28 16:23:01;;;;;;;7.95;2.97;;;;;;;;;;4995052;28;20470;-77
2021/10/28 16:25:27;;;;;;;3.65;2.70;;;;;;;;;;4998152;28;20288;-77
2021/10/28 16:27:53;;;;;;;3.17;2.88;;;;;;;;;;4994959;28;20182;-77
2021/10/28 16:30:19;;;;;;;3.40;2.70;;;;;;;;;;5000276;28;20182;-77
2021/10/28 16:32:46;;;;;;;4.88;3.58;;;;;;;;;;4998271;28;20179;-77
2021/10/28 16:35:12;;;;;;;5.05;3.10;;;;;;;;;;4984670;28;20199;-77
2021/10/28 16:37:38;;;;;;;3.85;3.40;;;;;;;;;;4998108;28;20300;-77
2021/10/28 16:40:05;;;;;;;4.13;3.20;;;;;;;;;;5012467;28;20214;-77
2021/10/28 16:42:31;;;;;;;3.90;3.15;;;;;;;;;;4994678;28;20215;-77
2021/10/28 16:44:57;;;;;;;4.80;3.13;;;;;;;;;;4980979;28;20236;-77
2021/10/28 16:47:25;;;;;;;4.30;3.40;;;;;;;;;;4981486;28;20236;-77
2021/10/28 16:49:51;;;;;;;4.50;3.50;;;;;;;;;;5009847;28;20538;-77
2021/10/28 16:52:17;;;;;;;4.13;3.35;;;;;;;;;;5022007;28;20214;-77
2021/10/28 16:54:44;;;;;;;5.65;3.20;;;;;;;;;;5017673;28;20198;-77
2021/10/28 16:57:10;;;;;;;4.65;2.95;;;;;;;;;;5017998;28;20175;-77
2021/10/28 16:59:36;;;;;;;4.65;3.30;;;;;;;;;;5017420;28;20190;-77
2021/10/28 17:02:02;;;;;;;6.00;3.33;;;;;;;;;;5016918;28;20553;-77
2021/10/28 17:04:28;;;;;;;4.22;3.83;;;;;;;;;;5019930;28;20461;-77
2021/10/28 17:06:54;;;;;;;4.73;4.30;;;;;;;;;;5008870;28;20175;-77
2021/10/28 17:09:20;;;;;;;6.10;4.07;;;;;;;;;;5016613;28;20688;-77
2021/10/28 17:11:47;;;;;;;8.38;6.47;;;;;;;;;;5018391;28;20417;-77
2021/10/28 17:14:13;;;;;;;6.03;5.40;;;;;;;;;;5015553;28;20210;-77
2021/10/28 17:16:43;;;;;;;6.78;4.28;;;;;;;;;;5022094;28;20202;-77
2021/10/28 17:19:10;;;;;;;8.00;5.70;;;;;;;;;;5021899;28;20640;-76
2021/10/28 17:21:36;;;;;;;10.48;7.45;;;;;;;;;;5022057;28;20262;-77
2021/10/28 17:24:05;;;;;;;10.73;9.52;;;;;;;;;;5021256;28;20251;-77
2021/10/28 17:26:33;;;;;;;13.68;10.52;;;;;;;;;;5016979;28;20178;-77
2021/10/28 17:29:01;;;;;;;13.82;9.80;;;;;;;;;;5016685;28;20192;-77
2021/10/28 17:31:29;;;;;;;17.80;13.32;;;;;;;;;;5019634;28;20205;-77
2021/10/28 17:33:56;;;;;;;13.90;10.65;;;;;;;;;;5021207;28;20188;-77
2021/10/28 17:36:22;;;;;;;14.23;10.13;;;;;;;;;;5021768;28;20174;-77
2021/10/28 17:38:48;;;;;;;16.60;12.57;;;;;;;;;;5021225;28;20179;-77
2021/10/28 17:41:14;;;;;;;17.93;10.43;;;;;;;;;;5016266;28;20519;-77
2021/10/28 17:43:45;;;;;;;15.98;9.70;;;;;;;;;;5016792;28;20469;-77
2021/10/28 17:46:13;;;;;;;15.82;10.35;;;;;;;;;;5020632;28;20286;-77
2021/10/28 17:48:39;;;;;;;15.75;11.00;;;;;;;;;;5017331;28;20179;-77
2021/10/28 17:51:05;;;;;;;16.88;11.80;;;;;;;;;;5013640;28;20209;-77
2021/10/28 17:53:32;;;;;;;13.45;11.35;;;;;;;;;;5021467;28;20186;-77
2021/10/28 17:55:58;;;;;;;11.25;10.10;;;;;;;;;;5016773;28;20187;-77
2021/10/28 17:58:24;;;;;;;12.55;9.30;;;;;;;;;;5018903;28;20187;-77
2021/10/28 18:00:50;;;;;;;9.55;8.60;;;;;;;;;;5023030;28;20202;-77
2021/10/28 18:03:20;;;;;;;13.07;9.95;;;;;;;;;;5027286;28;20186;-77
2021/10/28 18:05:46;;;;;;;21.55;15.77;;;;;;;;;;5036141;28;20240;-77
2021/10/28 18:08:14;;;;;;;18.98;16.42;;;;;;;;;;5024619;28;20231;-77
2021/10/28 18:10:40;;;;;;;22.27;15.13;;;;;;;;;;5024777;28;20194;-77
2021/10/28 18:13:08;;;;;;;17.33;14.68;;;;;;;;;;5025241;28;20242;-77
2021/10/28 18:15:34;;;;;;;19.50;15.93;;;;;;;;;;5028941;28;20189;-77
2021/10/28 18:18:02;;;;;;;20.58;16.50;;;;;;;;;;5021197;28;20210;-77
2021/10/28 18:20:28;;;;;;;16.08;14.40;;;;;;;;;;5020587;28;20703;-77
2021/10/28 18:22:54;;;;;;;19.40;15.60;;;;;;;;;;5019695;28;20457;-77
2021/10/28 18:25:21;;;;;;;17.40;15.38;;;;;;;;;;5022964;28;20213;-77
2021/10/28 18:27:48;;;;;;;17.60;14.75;;;;;;;;;;5021210;28;20241;-77
2021/10/28 18:30:16;;;;;;;15.73;13.52;;;;;;;;;;5029040;28;20482;-77
2021/10/28 18:32:43;;;;;;;15.60;13.95;;;;;;;;;;5019870;28;20178;-77
2021/10/28 18:35:11;;;;;;;14.95;13.07;;;;;;;;;;5016295;28;20217;-77
2021/10/28 18:37:37;;;;;;;15.35;11.70;;;;;;;;;;5016817;28;20198;-77
2021/10/28 18:40:03;;;;;;;13.75;10.88;;;;;;;;;;5024861;28;20237;-77
2021/10/28 18:42:29;;;;;;;14.23;11.40;;;;;;;;;;5028044;28;20770;-77
2021/10/28 18:44:55;;;;;;;13.25;11.10;;;;;;;;;;5023818;28;20222;-77
2021/10/28 18:47:21;;;;;;;15.07;12.48;;;;;;;;;;5025249;28;20183;-77
2021/10/28 18:49:49;;;;;;;15.85;11.65;;;;;;;;;;5020279;28;20179;-77
2021/10/28 18:52:17;;;;;;;13.75;12.35;;;;;;;;;;5012297;28;20257;-77
2021/10/28 18:54:43;;;;;;;16.70;13.55;;;;;;;;;;5019222;28;20384;-77
2021/10/28 18:57:09;;;;;;;14.75;11.57;;;;;;;;;;5019827;28;20170;-77
2021/10/28 18:59:35;;;;;;;15.23;13.32;;;;;;;;;;5034556;28;20193;-77
2021/10/28 19:02:01;;;;;;;14.07;12.13;;;;;;;;;;5024460;28;20182;-77
2021/10/28 19:04:27;;;;;;;16.77;13.85;;;;;;;;;;5022054;28;20199;-77
2021/10/28 19:06:54;;;;;;;17.13;13.63;;;;;;;;;;5021514;28;20201;-77
2021/10/28 19:09:20;;;;;;;15.40;13.90;;;;;;;;;;5018693;28;20190;-77
2021/10/28 19:11:47;;;;;;;14.80;13.15;;;;;;;;;;5020213;28;20189;-77
2021/10/28 19:14:13;;;;;;;17.08;13.60;;;;;;;;;;5022935;28;20183;-77
2021/10/28 19:16:39;;;;;;;15.80;13.85;;;;;;;;;;5019955;28;20198;-77
2021/10/28 19:19:06;;;;;;;18.83;13.85;;;;;;;;;;5022863;28;20186;-77
2021/10/28 19:21:33;;;;;;;13.77;9.77;;;;;;;;;;5028692;28;20186;-77
2021/10/28 19:23:59;;;;;;;13.30;9.90;;;;;;;;;;5019713;28;20217;-77
2021/10/28 19:26:25;;;;;;;14.98;11.55;;;;;;;;;;5017107;28;20195;-77
2021/10/28 19:28:51;;;;;;;14.18;10.60;;;;;;;;;;5019031;28;20627;-77
2021/10/28 19:31:21;;;;;;;12.18;11.05;;;;;;;;;;5022965;28;20692;-77
2021/10/28 19:33:50;;;;;;;15.13;12.13;;;;;;;;;;5022609;28;20186;-77
2021/10/28 19:36:26;;;;;;;12.75;11.45;;;;;;;;;;5035590;28;20178;-77
2021/10/28 19:46:47;;;;;;;8.65;6.80;;;;;;;;;;5019295;28;20206;-77
2021/10/28 19:49:14;;;;;;;11.23;6.85;;;;;;;;;;5023186;28;20269;-77
2021/10/28 19:51:41;;;;;;;7.85;7.15;;;;;;;;;;5018628;28;20182;-77
2021/10/28 19:54:11;;;;;;;9.73;6.07;;;;;;;;;;5018771;28;20231;-77
2021/10/28 19:56:37;;;;;;;7.50;6.57;;;;;;;;;;5021769;28;20256;-77
2021/10/28 19:59:04;;;;;;;8.07;7.25;;;;;;;;;;5018001;28;20187;-77
2021/10/28 20:07:20;;;;;;;5.95;4.93;;;;;;;;;;5017306;28;20203;-77
2021/10/28 20:20:20;;;;;;;5.65;4.25;;;;;;;;;;5017484;28;20333;-76
2021/10/28 20:22:47;;;;;;;6.03;4.03;;;;;;;;;;5018023;28;20214;-77
2021/10/28 20:25:15;;;;;;;6.18;4.90;;;;;;;;;;5021624;28;20209;-77
2021/10/28 20:27:42;;;;;;;9.27;5.50;;;;;;;;;;5017257;28;20175;-77
2021/10/28 20:30:09;;;;;;;7.90;5.55;;;;;;;;;;5018836;28;20174;-77
2021/10/28 20:32:35;;;;;;;11.88;5.22;;;;;;;;;;5013826;28;20175;-77
2021/10/28 20:35:10;;;;;;;5.97;4.85;;;;;;;;;;5014192;28;20248;-77
2021/10/28 20:37:37;;;;;;;4.88;4.20;;;;;;;;;;5029166;28;20190;-77
2021/10/28 20:40:04;;;;;;;6.85;4.53;;;;;;;;;;5034441;28;20182;-77
2021/10/28 20:42:40;;;;;;;5.78;4.72;;;;;;;;;;5017110;28;20481;-77
2021/10/28 20:45:11;;;;;;;6.78;4.65;;;;;;;;;;5017727;28;20226;-77
2021/10/28 20:47:40;;;;;;;11.55;5.00;;;;;;;;;;5013347;28;20179;-77
2021/10/28 20:50:07;;;;;;;6.13;5.10;;;;;;;;;;5021039;28;20186;-77
2021/10/28 20:52:34;;;;;;;9.15;5.25;;;;;;;;;;5019520;28;20175;-77
2021/10/28 20:55:00;;;;;;;5.93;4.35;;;;;;;;;;5019556;28;20198;-77
2021/10/28 20:57:26;;;;;;;5.65;4.95;;;;;;;;;;5017372;28;20189;-77
2021/10/28 20:59:53;;;;;;;6.70;4.50;;;;;;;;;;5022235;28;20177;-77
2021/10/28 21:02:19;;;;;;;6.05;4.45;;;;;;;;;;5016993;28;20174;-77
2021/10/28 21:04:45;;;;;;;5.40;4.20;;;;;;;;;;5017203;28;20206;-77
2021/10/28 21:07:11;;;;;;;5.07;4.60;;;;;;;;;;5019612;28;20227;-77
2021/10/28 21:09:37;;;;;;;6.28;5.43;;;;;;;;;;5016927;28;20494;-77
2021/10/28 21:12:03;;;;;;;7.13;5.50;;;;;;;;;;5018123;28;20181;-77
2021/10/28 21:14:29;;;;;;;8.30;6.22;;;;;;;;;;5016505;28;20217;-77
2021/10/28 21:16:55;;;;;;;6.28;4.60;;;;;;;;;;5020699;28;20265;-77
2021/10/28 21:19:21;;;;;;;6.88;5.75;;;;;;;;;;5019254;28;20233;-76
2021/10/28 21:21:51;;;;;;;6.75;4.57;;;;;;;;;;5022375;28;20624;-77
2021/10/28 21:24:17;;;;;;;7.65;5.57;;;;;;;;;;5025864;28;20206;-76
2021/10/28 21:26:43;;;;;;;8.63;5.20;;;;;;;;;;5017392;28;20240;-77
2021/10/28 21:29:09;;;;;;;5.72;4.22;;;;;;;;;;5020864;28;20246;-77
2021/10/28 21:31:35;;;;;;;6.33;4.60;;;;;;;;;;5019035;28;20218;-77
2021/10/28 21:34:01;;;;;;;6.18;5.22;;;;;;;;;;5020128;28;20491;-77
2021/10/28 21:36:27;;;;;;;10.27;5.50;;;;;;;;;;5034723;28;20171;-77
2021/10/28 21:38:53;;;;;;;7.10;5.30;;;;;;;;;;5024058;28;20179;-77
2021/10/28 21:41:19;;;;;;;6.90;4.80;;;;;;;;;;5020574;28;20193;-77
2021/10/28 21:43:46;;;;;;;7.57;4.88;;;;;;;;;;5020162;28;20206;-77
2021/10/28 21:46:12;;;;;;;5.60;5.10;;;;;;;;;;5020112;28;20279;-77
2021/10/28 21:48:38;;;;;;;4.85;4.43;;;;;;;;;;5019123;28;20175;-77
2021/10/28 21:51:05;;;;;;;7.22;5.15;;;;;;;;;;5016919;28;20741;-77
2021/10/28 21:53:37;;;;;;;5.05;4.57;;;;;;;;;;5020292;28;20171;-77
2021/10/28 21:56:10;;;;;;;5.18;4.28;;;;;;;;;;5018344;28;20187;-77
2021/10/28 22:07:04;;;;;;;8.00;4.90;;;;;;;;;;5024783;28;20187;-77
2021/10/28 22:26:02;;;;;;;5.43;4.30;;;;;;;;;;5021829;28;20824;-76
2021/10/28 22:28:28;;;;;;;5.45;4.85;;;;;;;;;;5022512;28;20210;-76
2021/10/28 22:30:54;;;;;;;5.18;4.68;;;;;;;;;;5022622;28;20193;-77
2021/10/28 22:33:20;;;;;;;5.20;4.55;;;;;;;;;;5022358;28;20185;-77
2021/10/28 22:35:52;;;;;;;5.80;5.20;;;;;;;;;;5010153;28;20265;-77
2021/10/28 22:38:19;;;;;;;18.05;5.70;;;;;;;;;;5003627;28;20185;-77
2021/10/28 22:40:48;;;;;;;5.07;4.57;;;;;;;;;;5022106;28;20190;-77
2021/10/28 22:43:16;;;;;;;5.85;5.25;;;;;;;;;;5021825;28;20246;-77
2021/10/28 22:45:42;;;;;;;5.57;4.75;;;;;;;;;;5021620;28;20722;-77
2021/10/28 22:48:09;;;;;;;8.02;5.95;;;;;;;;;;5021946;28;20190;-77
2021/10/28 22:50:37;;;;;;;7.80;5.32;;;;;;;;;;5022367;28;20204;-77
2021/10/28 22:53:04;;;;;;;5.78;5.18;;;;;;;;;;5022030;28;20254;-77
2021/10/28 22:55:34;;;;;;;5.60;4.80;;;;;;;;;;5002551;28;20197;-77
2021/10/28 23:16:46;;;;;;;7.05;5.07;;;;;;;;;;5012998;28;20256;-77
2021/10/28 23:21:16;;;;;;;7.32;5.15;;;;;;;;;;5016332;28;20183;-77
2021/10/28 23:23:42;;;;;;;8.30;4.90;;;;;;;;;;5018757;28;20277;-77
2021/10/28 23:26:08;;;;;;;5.72;5.10;;;;;;;;;;5022138;28;20194;-77
2021/10/28 23:28:34;;;;;;;6.72;4.45;;;;;;;;;;5020942;28;20237;-77
2021/10/28 23:31:00;;;;;;;4.32;3.90;;;;;;;;;;5020374;28;20180;-77
2021/10/28 23:33:27;;;;;;;5.00;4.20;;;;;;;;;;5018659;28;20262;-77
2021/10/28 23:35:53;;;;;;;7.30;4.80;;;;;;;;;;5020096;28;20496;-77
2021/10/28 23:38:19;;;;;;;6.22;5.22;;;;;;;;;;5020476;28;20179;-77
2021/10/28 23:40:45;;;;;;;5.07;4.57;;;;;;;;;;5018339;28;20195;-77
2021/10/28 23:43:11;;;;;;;5.40;4.90;;;;;;;;;;5021216;28;20545;-77
2021/10/28 23:45:37;;;;;;;5.53;4.72;;;;;;;;;;5017705;28;20239;-77
2021/10/28 23:48:04;;;;;;;9.23;4.43;;;;;;;;;;5019645;28;20202;-77
2021/10/28 23:50:30;;;;;;;6.63;5.07;;;;;;;;;;5017448;28;20233;-77
2021/10/28 23:52:56;;;;;;;5.13;4.63;;;;;;;;;;5022328;28;20189;-77
2021/10/28 23:55:22;;;;;;;6.47;5.63;;;;;;;;;;5021450;28;20212;-77
2021/10/28 23:57:48;;;;;;;6.95;5.30;;;;;;;;;;5019246;28;20246;-77
